sensor_id;sensor_type;location;lat;lon;timestamp;P1;durP1;ratioP1;P2;durP2;ratioP2
57565;SDS011;63999;43.882;-0.310;2023-05-10T00:01:03;21.98;;;5.10;;
57565;SDS011;63999;43.882;-0.310;2023-05-10T00:03:29;20.45;;;4.88;;
57565;SDS011;63999;43.882;-0.310;2023-05-10T00:06:00;19.08;;;4.80;;
57565;SDS011;63999;43.882;-0.310;2023-05-10T00:08:25;19.15;;;5.28;;
57565;SDS011;63999;43.882;-0.310;2023-05-10T00:10:54;16.95;;;4.43;;
57565;SDS011;63999;43.882;-0.310;2023-05-10T00:13:20;18.13;;;5.28;;
57565;SDS011;63999;43.882;-0.310;2023-05-10T00:15:52;19.85;;;5.47;;
57565;SDS011;63999;43.882;-0.310;2023-05-10T00:18:20;18.02;;;4.97;;
57565;SDS011;63999;43.882;-0.310;2023-05-10T00:20:48;17.42;;;5.07;;
57565;SDS011;63999;43.882;-0.310;2023-05-10T00:23:15;20.35;;;4.93;;
57565;SDS011;63999;43.882;-0.310;2023-05-10T00:25:40;15.88;;;4.45;;
57565;SDS011;63999;43.882;-0.310;2023-05-10T00:28:09;15.95;;;3.70;;
57565;SDS011;63999;43.882;-0.310;2023-05-10T00:30:35;10.43;;;2.95;;
57565;SDS011;63999;43.882;-0.310;2023-05-10T00:33:01;12.45;;;3.13;;
57565;SDS011;63999;43.882;-0.310;2023-05-10T00:35:31;13.32;;;3.10;;
57565;SDS011;63999;43.882;-0.310;2023-05-10T00:37:57;8.13;;;2.70;;
57565;SDS011;63999;43.882;-0.310;2023-05-10T00:40:23;12.57;;;3.30;;
57565;SDS011;63999;43.882;-0.310;2023-05-10T00:42:51;12.82;;;3.13;;
57565;SDS011;63999;43.882;-0.310;2023-05-10T00:45:20;12.02;;;3.30;;
57565;SDS011;63999;43.882;-0.310;2023-05-10T00:47:50;10.32;;;2.85;;
57565;SDS011;63999;43.882;-0.310;2023-05-10T00:52:50;17.55;;;3.88;;
57565;SDS011;63999;43.882;-0.310;2023-05-10T00:55:17;8.70;;;2.80;;
57565;SDS011;63999;43.882;-0.310;2023-05-10T00:57:47;11.80;;;3.70;;
57565;SDS011;63999;43.882;-0.310;2023-05-10T01:00:16;15.25;;;3.20;;
57565;SDS011;63999;43.882;-0.310;2023-05-10T01:02:44;13.50;;;3.10;;
57565;SDS011;63999;43.882;-0.310;2023-05-10T01:05:17;11.35;;;3.38;;
57565;SDS011;63999;43.882;-0.310;2023-05-10T01:07:48;12.20;;;3.10;;
57565;SDS011;63999;43.882;-0.310;2023-05-10T01:10:14;14.68;;;3.30;;
57565;SDS011;63999;43.882;-0.310;2023-05-10T01:12:41;11.02;;;3.25;;
57565;SDS011;63999;43.882;-0.310;2023-05-10T01:15:12;12.10;;;3.35;;
57565;SDS011;63999;43.882;-0.310;2023-05-10T01:17:43;13.70;;;3.25;;
57565;SDS011;63999;43.882;-0.310;2023-05-10T01:20:11;15.30;;;3.63;;
57565;SDS011;63999;43.882;-0.310;2023-05-10T01:29:11;11.32;;;2.90;;
57565;SDS011;63999;43.882;-0.310;2023-05-10T01:32:16;12.23;;;3.20;;
57565;SDS011;63999;43.882;-0.310;2023-05-10T01:34:51;16.65;;;3.25;;
57565;SDS011;63999;43.882;-0.310;2023-05-10T01:37:34;13.13;;;3.15;;
57565;SDS011;63999;43.882;-0.310;2023-05-10T01:40:08;14.93;;;3.35;;
57565;SDS011;63999;43.882;-0.310;2023-05-10T01:42:54;10.50;;;2.67;;
57565;SDS011;63999;43.882;-0.310;2023-05-10T01:45:39;11.23;;;3.08;;
57565;SDS011;63999;43.882;-0.310;2023-05-10T01:48:23;11.07;;;3.08;;
57565;SDS011;63999;43.882;-0.310;2023-05-10T01:50:54;10.88;;;2.65;;
57565;SDS011;63999;43.882;-0.310;2023-05-10T01:53:26;11.13;;;2.97;;
57565;SDS011;63999;43.882;-0.310;2023-05-10T01:55:56;12.55;;;3.00;;
57565;SDS011;63999;43.882;-0.310;2023-05-10T01:58:30;11.60;;;3.22;;
57565;SDS011;63999;43.882;-0.310;2023-05-10T02:00:59;12.98;;;2.83;;
57565;SDS011;63999;43.882;-0.310;2023-05-10T02:03:31;12.52;;;3.10;;
57565;SDS011;63999;43.882;-0.310;2023-05-10T02:06:05;10.82;;;3.00;;
57565;SDS011;63999;43.882;-0.310;2023-05-10T02:08:35;12.90;;;2.75;;
57565;SDS011;63999;43.882;-0.310;2023-05-10T02:11:04;16.05;;;3.30;;
57565;SDS011;63999;43.882;-0.310;2023-05-10T02:13:31;12.25;;;3.05;;
57565;SDS011;63999;43.882;-0.310;2023-05-10T02:15:59;10.68;;;2.50;;
57565;SDS011;63999;43.882;-0.310;2023-05-10T02:18:26;17.80;;;3.17;;
57565;SDS011;63999;43.882;-0.310;2023-05-10T02:20:55;12.20;;;2.70;;
57565;SDS011;63999;43.882;-0.310;2023-05-10T02:23:21;13.75;;;2.70;;
57565;SDS011;63999;43.882;-0.310;2023-05-10T02:25:53;15.60;;;3.25;;
57565;SDS011;63999;43.882;-0.310;2023-05-10T02:28:21;14.27;;;3.30;;
57565;SDS011;63999;43.882;-0.310;2023-05-10T02:30:54;12.68;;;3.17;;
57565;SDS011;63999;43.882;-0.310;2023-05-10T02:33:21;12.02;;;2.70;;
57565;SDS011;63999;43.882;-0.310;2023-05-10T02:35:47;11.27;;;3.03;;
57565;SDS011;63999;43.882;-0.310;2023-05-10T02:38:15;10.43;;;2.92;;
57565;SDS011;63999;43.882;-0.310;2023-05-10T02:40:42;9.98;;;3.42;;
57565;SDS011;63999;43.882;-0.310;2023-05-10T02:43:12;13.70;;;3.72;;
57565;SDS011;63999;43.882;-0.310;2023-05-10T02:45:43;14.02;;;3.33;;
57565;SDS011;63999;43.882;-0.310;2023-05-10T02:48:12;16.85;;;3.72;;
57565;SDS011;63999;43.882;-0.310;2023-05-10T02:50:44;14.80;;;3.30;;
57565;SDS011;63999;43.882;-0.310;2023-05-10T02:53:21;11.38;;;3.65;;
57565;SDS011;63999;43.882;-0.310;2023-05-10T02:55:57;11.80;;;3.53;;
57565;SDS011;63999;43.882;-0.310;2023-05-10T02:58:28;13.68;;;3.47;;
57565;SDS011;63999;43.882;-0.310;2023-05-10T03:00:57;13.10;;;3.40;;
57565;SDS011;63999;43.882;-0.310;2023-05-10T03:03:23;12.20;;;3.83;;
57565;SDS011;63999;43.882;-0.310;2023-05-10T03:05:51;12.80;;;3.90;;
57565;SDS011;63999;43.882;-0.310;2023-05-10T03:08:19;17.55;;;4.35;;
57565;SDS011;63999;43.882;-0.310;2023-05-10T03:10:50;12.50;;;4.00;;
57565;SDS011;63999;43.882;-0.310;2023-05-10T03:16:41;10.32;;;3.83;;
57565;SDS011;63999;43.882;-0.310;2023-05-10T03:19:15;17.73;;;4.40;;
57565;SDS011;63999;43.882;-0.310;2023-05-10T03:21:52;13.23;;;3.92;;
57565;SDS011;63999;43.882;-0.310;2023-05-10T03:24:23;11.60;;;3.40;;
57565;SDS011;63999;43.882;-0.310;2023-05-10T03:26:53;11.38;;;3.55;;
57565;SDS011;63999;43.882;-0.310;2023-05-10T03:29:25;13.57;;;3.92;;
57565;SDS011;63999;43.882;-0.310;2023-05-10T03:31:55;13.88;;;3.78;;
57565;SDS011;63999;43.882;-0.310;2023-05-10T03:34:24;12.65;;;4.13;;
57565;SDS011;63999;43.882;-0.310;2023-05-10T03:36:50;11.50;;;3.95;;
57565;SDS011;63999;43.882;-0.310;2023-05-10T03:39:22;17.38;;;4.50;;
57565;SDS011;63999;43.882;-0.310;2023-05-10T03:41:49;16.30;;;4.75;;
57565;SDS011;63999;43.882;-0.310;2023-05-10T03:44:16;14.13;;;4.55;;
57565;SDS011;63999;43.882;-0.310;2023-05-10T03:46:42;12.00;;;4.55;;
57565;SDS011;63999;43.882;-0.310;2023-05-10T03:49:13;12.95;;;4.40;;
57565;SDS011;63999;43.882;-0.310;2023-05-10T03:51:39;13.98;;;4.72;;
57565;SDS011;63999;43.882;-0.310;2023-05-10T03:54:05;11.75;;;4.30;;
57565;SDS011;63999;43.882;-0.310;2023-05-10T03:56:30;14.82;;;5.05;;
57565;SDS011;63999;43.882;-0.310;2023-05-10T03:58:56;15.32;;;5.55;;
57565;SDS011;63999;43.882;-0.310;2023-05-10T04:01:25;13.27;;;5.57;;
57565;SDS011;63999;43.882;-0.310;2023-05-10T04:03:51;17.85;;;5.97;;
57565;SDS011;63999;43.882;-0.310;2023-05-10T04:06:17;16.50;;;6.22;;
57565;SDS011;63999;43.882;-0.310;2023-05-10T04:08:45;15.52;;;5.75;;
57565;SDS011;63999;43.882;-0.310;2023-05-10T04:11:13;15.20;;;5.60;;
57565;SDS011;63999;43.882;-0.310;2023-05-10T04:13:39;16.17;;;6.15;;
57565;SDS011;63999;43.882;-0.310;2023-05-10T04:16:05;14.07;;;6.35;;
57565;SDS011;63999;43.882;-0.310;2023-05-10T04:18:31;13.73;;;5.85;;
57565;SDS011;63999;43.882;-0.310;2023-05-10T04:20:57;17.02;;;6.22;;
57565;SDS011;63999;43.882;-0.310;2023-05-10T04:23:23;16.52;;;6.57;;
57565;SDS011;63999;43.882;-0.310;2023-05-10T04:25:48;14.65;;;5.68;;
57565;SDS011;63999;43.882;-0.310;2023-05-10T04:28:14;16.52;;;6.10;;
57565;SDS011;63999;43.882;-0.310;2023-05-10T04:30:43;17.15;;;6.18;;
57565;SDS011;63999;43.882;-0.310;2023-05-10T04:33:08;14.98;;;6.07;;
57565;SDS011;63999;43.882;-0.310;2023-05-10T04:35:34;19.10;;;5.47;;
57565;SDS011;63999;43.882;-0.310;2023-05-10T04:38:00;18.13;;;5.70;;
57565;SDS011;63999;43.882;-0.310;2023-05-10T04:40:26;16.02;;;5.45;;
57565;SDS011;63999;43.882;-0.310;2023-05-10T04:42:54;15.90;;;5.35;;
57565;SDS011;63999;43.882;-0.310;2023-05-10T04:45:25;18.23;;;5.43;;
57565;SDS011;63999;43.882;-0.310;2023-05-10T04:47:51;10.98;;;4.80;;
57565;SDS011;63999;43.882;-0.310;2023-05-10T04:50:17;18.58;;;5.20;;
57565;SDS011;63999;43.882;-0.310;2023-05-10T04:52:43;15.82;;;5.28;;
57565;SDS011;63999;43.882;-0.310;2023-05-10T04:55:09;11.77;;;4.60;;
57565;SDS011;63999;43.882;-0.310;2023-05-10T04:57:35;13.23;;;5.07;;
57565;SDS011;63999;43.882;-0.310;2023-05-10T05:00:01;18.75;;;4.93;;
57565;SDS011;63999;43.882;-0.310;2023-05-10T05:02:27;14.55;;;5.22;;
57565;SDS011;63999;43.882;-0.310;2023-05-10T05:04:53;14.90;;;4.78;;
57565;SDS011;63999;43.882;-0.310;2023-05-10T05:07:22;14.80;;;4.68;;
57565;SDS011;63999;43.882;-0.310;2023-05-10T05:09:48;11.90;;;4.88;;
57565;SDS011;63999;43.882;-0.310;2023-05-10T05:12:19;15.33;;;4.83;;
57565;SDS011;63999;43.882;-0.310;2023-05-10T05:14:45;14.77;;;5.05;;
57565;SDS011;63999;43.882;-0.310;2023-05-10T05:17:14;12.27;;;4.85;;
57565;SDS011;63999;43.882;-0.310;2023-05-10T05:19:40;11.93;;;4.43;;
57565;SDS011;63999;43.882;-0.310;2023-05-10T05:22:09;14.57;;;4.32;;
57565;SDS011;63999;43.882;-0.310;2023-05-10T05:24:52;15.05;;;4.90;;
57565;SDS011;63999;43.882;-0.310;2023-05-10T05:27:23;16.52;;;5.30;;
57565;SDS011;63999;43.882;-0.310;2023-05-10T05:29:57;20.08;;;5.50;;
57565;SDS011;63999;43.882;-0.310;2023-05-10T05:34:49;15.00;;;5.20;;
57565;SDS011;63999;43.882;-0.310;2023-05-10T05:37:18;14.75;;;4.95;;
57565;SDS011;63999;43.882;-0.310;2023-05-10T05:39:46;16.80;;;5.07;;
57565;SDS011;63999;43.882;-0.310;2023-05-10T05:42:13;16.67;;;5.05;;
57565;SDS011;63999;43.882;-0.310;2023-05-10T05:44:39;15.98;;;4.57;;
57565;SDS011;63999;43.882;-0.310;2023-05-10T05:47:05;16.15;;;5.22;;
57565;SDS011;63999;43.882;-0.310;2023-05-10T05:49:31;14.68;;;4.35;;
57565;SDS011;63999;43.882;-0.310;2023-05-10T05:52:01;15.52;;;4.72;;
57565;SDS011;63999;43.882;-0.310;2023-05-10T05:54:28;13.52;;;4.57;;
57565;SDS011;63999;43.882;-0.310;2023-05-10T05:56:55;17.85;;;4.50;;
57565;SDS011;63999;43.882;-0.310;2023-05-10T05:59:22;16.52;;;4.47;;
57565;SDS011;63999;43.882;-0.310;2023-05-10T06:01:48;18.70;;;4.18;;
57565;SDS011;63999;43.882;-0.310;2023-05-10T06:04:14;16.33;;;4.53;;
57565;SDS011;63999;43.882;-0.310;2023-05-10T06:06:43;15.13;;;4.63;;
57565;SDS011;63999;43.882;-0.310;2023-05-10T06:09:24;16.83;;;4.68;;
57565;SDS011;63999;43.882;-0.310;2023-05-10T06:11:52;15.00;;;4.03;;
57565;SDS011;63999;43.882;-0.310;2023-05-10T06:14:20;18.77;;;4.30;;
57565;SDS011;63999;43.882;-0.310;2023-05-10T06:16:46;13.35;;;3.92;;
57565;SDS011;63999;43.882;-0.310;2023-05-10T06:19:15;12.45;;;3.30;;
57565;SDS011;63999;43.882;-0.310;2023-05-10T06:21:41;18.98;;;3.88;;
57565;SDS011;63999;43.882;-0.310;2023-05-10T06:24:07;15.60;;;3.47;;
57565;SDS011;63999;43.882;-0.310;2023-05-10T06:26:36;15.93;;;3.42;;
57565;SDS011;63999;43.882;-0.310;2023-05-10T06:29:01;15.68;;;3.50;;
57565;SDS011;63999;43.882;-0.310;2023-05-10T06:31:27;10.75;;;2.83;;
57565;SDS011;63999;43.882;-0.310;2023-05-10T06:33:53;13.02;;;2.95;;
57565;SDS011;63999;43.882;-0.310;2023-05-10T06:36:22;12.40;;;2.88;;
57565;SDS011;63999;43.882;-0.310;2023-05-10T06:38:49;10.82;;;2.63;;
57565;SDS011;63999;43.882;-0.310;2023-05-10T06:41:16;6.57;;;2.25;;
57565;SDS011;63999;43.882;-0.310;2023-05-10T06:43:42;12.82;;;2.65;;
57565;SDS011;63999;43.882;-0.310;2023-05-10T06:48:49;11.35;;;2.40;;
57565;SDS011;63999;43.882;-0.310;2023-05-10T06:51:15;10.77;;;2.47;;
57565;SDS011;63999;43.882;-0.310;2023-05-10T06:53:41;13.20;;;2.58;;
57565;SDS011;63999;43.882;-0.310;2023-05-10T06:56:18;12.23;;;2.67;;
57565;SDS011;63999;43.882;-0.310;2023-05-10T06:58:56;12.40;;;2.47;;
57565;SDS011;63999;43.882;-0.310;2023-05-10T07:01:22;10.55;;;2.42;;
57565;SDS011;63999;43.882;-0.310;2023-05-10T07:03:53;16.23;;;2.53;;
57565;SDS011;63999;43.882;-0.310;2023-05-10T07:06:18;12.27;;;2.35;;
57565;SDS011;63999;43.882;-0.310;2023-05-10T07:08:47;10.15;;;1.95;;
57565;SDS011;63999;43.882;-0.310;2023-05-10T07:11:13;11.50;;;2.13;;
57565;SDS011;63999;43.882;-0.310;2023-05-10T07:13:39;11.68;;;2.75;;
57565;SDS011;63999;43.882;-0.310;2023-05-10T07:16:08;13.95;;;2.33;;
57565;SDS011;63999;43.882;-0.310;2023-05-10T07:18:36;8.82;;;2.67;;
57565;SDS011;63999;43.882;-0.310;2023-05-10T07:21:01;11.15;;;2.25;;
57565;SDS011;63999;43.882;-0.310;2023-05-10T07:23:28;14.00;;;2.72;;
57565;SDS011;63999;43.882;-0.310;2023-05-10T07:25:54;13.85;;;2.80;;
57565;SDS011;63999;43.882;-0.310;2023-05-10T07:28:20;12.90;;;3.20;;
57565;SDS011;63999;43.882;-0.310;2023-05-10T07:30:46;12.20;;;2.88;;
57565;SDS011;63999;43.882;-0.310;2023-05-10T07:33:15;15.45;;;3.35;;
57565;SDS011;63999;43.882;-0.310;2023-05-10T07:35:46;8.77;;;2.28;;
57565;SDS011;63999;43.882;-0.310;2023-05-10T07:38:13;17.83;;;3.50;;
57565;SDS011;63999;43.882;-0.310;2023-05-10T07:40:39;15.88;;;3.42;;
57565;SDS011;63999;43.882;-0.310;2023-05-10T07:43:05;9.40;;;2.95;;
57565;SDS011;63999;43.882;-0.310;2023-05-10T07:45:31;12.90;;;3.22;;
57565;SDS011;63999;43.882;-0.310;2023-05-10T07:47:56;13.30;;;3.10;;
57565;SDS011;63999;43.882;-0.310;2023-05-10T07:50:22;10.25;;;2.97;;
57565;SDS011;63999;43.882;-0.310;2023-05-10T07:52:48;17.38;;;3.55;;
57565;SDS011;63999;43.882;-0.310;2023-05-10T07:55:14;16.33;;;3.08;;
57565;SDS011;63999;43.882;-0.310;2023-05-10T07:57:58;11.55;;;2.50;;
57565;SDS011;63999;43.882;-0.310;2023-05-10T08:00:26;11.00;;;2.78;;
57565;SDS011;63999;43.882;-0.310;2023-05-10T08:02:54;15.45;;;3.35;;
57565;SDS011;63999;43.882;-0.310;2023-05-10T08:05:20;18.30;;;3.30;;
57565;SDS011;63999;43.882;-0.310;2023-05-10T08:07:46;14.60;;;3.20;;
57565;SDS011;63999;43.882;-0.310;2023-05-10T08:10:12;11.77;;;3.03;;
57565;SDS011;63999;43.882;-0.310;2023-05-10T08:12:38;13.82;;;2.97;;
57565;SDS011;63999;43.882;-0.310;2023-05-10T08:15:04;8.65;;;2.13;;
57565;SDS011;63999;43.882;-0.310;2023-05-10T08:17:30;13.57;;;3.08;;
57565;SDS011;63999;43.882;-0.310;2023-05-10T08:20:08;16.75;;;3.30;;
57565;SDS011;63999;43.882;-0.310;2023-05-10T08:22:34;9.98;;;2.78;;
57565;SDS011;63999;43.882;-0.310;2023-05-10T08:25:03;13.88;;;2.92;;
57565;SDS011;63999;43.882;-0.310;2023-05-10T08:27:30;12.73;;;2.72;;
57565;SDS011;63999;43.882;-0.310;2023-05-10T08:29:58;12.02;;;2.50;;
57565;SDS011;63999;43.882;-0.310;2023-05-10T08:32:24;8.88;;;2.30;;
57565;SDS011;63999;43.882;-0.310;2023-05-10T08:34:50;11.90;;;2.30;;
57565;SDS011;63999;43.882;-0.310;2023-05-10T08:37:15;11.10;;;2.75;;
57565;SDS011;63999;43.882;-0.310;2023-05-10T08:39:41;10.27;;;2.67;;
57565;SDS011;63999;43.882;-0.310;2023-05-10T08:42:07;15.45;;;2.40;;
57565;SDS011;63999;43.882;-0.310;2023-05-10T08:44:35;13.00;;;2.70;;
57565;SDS011;63999;43.882;-0.310;2023-05-10T08:47:04;11.75;;;2.40;;
57565;SDS011;63999;43.882;-0.310;2023-05-10T08:49:34;13.75;;;2.63;;
57565;SDS011;63999;43.882;-0.310;2023-05-10T08:52:02;10.15;;;2.42;;
57565;SDS011;63999;43.882;-0.310;2023-05-10T08:57:54;8.95;;;1.88;;
57565;SDS011;63999;43.882;-0.310;2023-05-10T09:00:20;12.23;;;1.83;;
57565;SDS011;63999;43.882;-0.310;2023-05-10T09:02:48;8.93;;;1.95;;
57565;SDS011;63999;43.882;-0.310;2023-05-10T09:05:15;11.40;;;1.95;;
57565;SDS011;63999;43.882;-0.310;2023-05-10T09:07:42;9.38;;;1.88;;
57565;SDS011;63999;43.882;-0.310;2023-05-10T09:10:08;9.50;;;1.90;;
57565;SDS011;63999;43.882;-0.310;2023-05-10T09:12:36;12.15;;;1.85;;
57565;SDS011;63999;43.882;-0.310;2023-05-10T09:15:02;10.25;;;1.83;;
57565;SDS011;63999;43.882;-0.310;2023-05-10T09:17:30;9.43;;;1.98;;
57565;SDS011;63999;43.882;-0.310;2023-05-10T09:19:57;10.52;;;1.90;;
57565;SDS011;63999;43.882;-0.310;2023-05-10T09:22:24;10.00;;;1.90;;
57565;SDS011;63999;43.882;-0.310;2023-05-10T09:25:09;7.85;;;1.83;;
57565;SDS011;63999;43.882;-0.310;2023-05-10T09:27:41;11.75;;;2.00;;
57565;SDS011;63999;43.882;-0.310;2023-05-10T09:30:16;8.93;;;2.22;;
57565;SDS011;63999;43.882;-0.310;2023-05-10T09:32:59;13.90;;;1.88;;
57565;SDS011;63999;43.882;-0.310;2023-05-10T09:35:29;7.70;;;1.60;;
57565;SDS011;63999;43.882;-0.310;2023-05-10T09:38:03;14.25;;;2.30;;
57565;SDS011;63999;43.882;-0.310;2023-05-10T09:40:30;8.73;;;1.80;;
57565;SDS011;63999;43.882;-0.310;2023-05-10T09:42:57;9.60;;;1.85;;
57565;SDS011;63999;43.882;-0.310;2023-05-10T09:45:31;12.65;;;1.80;;
57565;SDS011;63999;43.882;-0.310;2023-05-10T09:47:59;9.65;;;1.80;;
57565;SDS011;63999;43.882;-0.310;2023-05-10T09:50:27;6.75;;;1.70;;
57565;SDS011;63999;43.882;-0.310;2023-05-10T09:52:54;8.98;;;1.70;;
57565;SDS011;63999;43.882;-0.310;2023-05-10T09:55:37;12.88;;;2.20;;
57565;SDS011;63999;43.882;-0.310;2023-05-10T09:58:05;9.50;;;2.30;;
57565;SDS011;63999;43.882;-0.310;2023-05-10T10:00:39;12.90;;;2.05;;
57565;SDS011;63999;43.882;-0.310;2023-05-10T10:03:16;10.10;;;2.08;;
57565;SDS011;63999;43.882;-0.310;2023-05-10T10:05:45;12.77;;;2.13;;
57565;SDS011;63999;43.882;-0.310;2023-05-10T10:08:15;9.00;;;1.73;;
57565;SDS011;63999;43.882;-0.310;2023-05-10T10:10:44;15.23;;;2.42;;
57565;SDS011;63999;43.882;-0.310;2023-05-10T10:13:11;10.82;;;2.42;;
57565;SDS011;63999;43.882;-0.310;2023-05-10T10:15:42;10.38;;;2.22;;
57565;SDS011;63999;43.882;-0.310;2023-05-10T10:18:12;11.20;;;2.03;;
57565;SDS011;63999;43.882;-0.310;2023-05-10T10:20:42;13.63;;;2.30;;
57565;SDS011;63999;43.882;-0.310;2023-05-10T10:23:09;11.57;;;2.38;;
57565;SDS011;63999;43.882;-0.310;2023-05-10T10:25:35;12.82;;;2.35;;
57565;SDS011;63999;43.882;-0.310;2023-05-10T10:28:09;8.57;;;1.88;;
57565;SDS011;63999;43.882;-0.310;2023-05-10T10:30:49;7.95;;;1.80;;
57565;SDS011;63999;43.882;-0.310;2023-05-10T10:35:47;10.80;;;1.95;;
57565;SDS011;63999;43.882;-0.310;2023-05-10T10:38:14;12.07;;;1.90;;
57565;SDS011;63999;43.882;-0.310;2023-05-10T10:40:41;6.95;;;1.40;;
57565;SDS011;63999;43.882;-0.310;2023-05-10T10:43:26;8.75;;;2.00;;
57565;SDS011;63999;43.882;-0.310;2023-05-10T10:46:15;11.52;;;2.17;;
57565;SDS011;63999;43.882;-0.310;2023-05-10T10:48:48;6.70;;;1.63;;
57565;SDS011;63999;43.882;-0.310;2023-05-10T10:51:36;8.88;;;1.75;;
57565;SDS011;63999;43.882;-0.310;2023-05-10T10:54:09;9.65;;;1.65;;
57565;SDS011;63999;43.882;-0.310;2023-05-10T10:56:36;8.60;;;1.58;;
57565;SDS011;63999;43.882;-0.310;2023-05-10T10:59:02;6.68;;;1.38;;
57565;SDS011;63999;43.882;-0.310;2023-05-10T11:01:37;11.43;;;1.83;;
57565;SDS011;63999;43.882;-0.310;2023-05-10T11:06:35;8.15;;;1.70;;
57565;SDS011;63999;43.882;-0.310;2023-05-10T11:09:08;6.70;;;1.60;;
57565;SDS011;63999;43.882;-0.310;2023-05-10T11:11:36;5.95;;;1.40;;
57565;SDS011;63999;43.882;-0.310;2023-05-10T11:14:14;7.75;;;1.50;;
57565;SDS011;63999;43.882;-0.310;2023-05-10T11:16:46;11.65;;;1.85;;
57565;SDS011;63999;43.882;-0.310;2023-05-10T11:19:12;7.13;;;1.63;;
57565;SDS011;63999;43.882;-0.310;2023-05-10T11:21:47;11.02;;;2.47;;
57565;SDS011;63999;43.882;-0.310;2023-05-10T11:24:18;9.15;;;1.80;;
57565;SDS011;63999;43.882;-0.310;2023-05-10T11:29:15;9.30;;;1.98;;
57565;SDS011;63999;43.882;-0.310;2023-05-10T11:31:42;6.93;;;1.77;;
57565;SDS011;63999;43.882;-0.310;2023-05-10T11:34:10;11.70;;;2.85;;
57565;SDS011;63999;43.882;-0.310;2023-05-10T11:36:37;6.05;;;1.40;;
57565;SDS011;63999;43.882;-0.310;2023-05-10T11:39:06;8.90;;;1.83;;
57565;SDS011;63999;43.882;-0.310;2023-05-10T11:44:22;12.52;;;2.55;;
57565;SDS011;63999;43.882;-0.310;2023-05-10T11:47:00;9.45;;;2.47;;
57565;SDS011;63999;43.882;-0.310;2023-05-10T11:49:26;8.18;;;2.47;;
57565;SDS011;63999;43.882;-0.310;2023-05-10T11:52:05;11.35;;;2.70;;
57565;SDS011;63999;43.882;-0.310;2023-05-10T11:54:36;7.47;;;1.92;;
57565;SDS011;63999;43.882;-0.310;2023-05-10T11:57:15;10.93;;;2.65;;
57565;SDS011;63999;43.882;-0.310;2023-05-10T11:59:46;11.93;;;2.55;;
57565;SDS011;63999;43.882;-0.310;2023-05-10T12:02:13;10.02;;;2.33;;
57565;SDS011;63999;43.882;-0.310;2023-05-10T12:04:40;14.55;;;2.72;;
57565;SDS011;63999;43.882;-0.310;2023-05-10T12:07:06;6.78;;;1.60;;
57565;SDS011;63999;43.882;-0.310;2023-05-10T12:09:32;9.00;;;1.80;;
57565;SDS011;63999;43.882;-0.310;2023-05-10T12:11:58;5.50;;;1.50;;
57565;SDS011;63999;43.882;-0.310;2023-05-10T12:14:27;8.45;;;2.03;;
57565;SDS011;63999;43.882;-0.310;2023-05-10T12:16:59;7.47;;;1.70;;
57565;SDS011;63999;43.882;-0.310;2023-05-10T12:19:24;9.90;;;1.85;;
57565;SDS011;63999;43.882;-0.310;2023-05-10T12:21:50;6.65;;;1.88;;
57565;SDS011;63999;43.882;-0.310;2023-05-10T12:24:16;8.80;;;2.00;;
57565;SDS011;63999;43.882;-0.310;2023-05-10T12:26:43;7.75;;;1.80;;
57565;SDS011;63999;43.882;-0.310;2023-05-10T12:29:17;8.68;;;1.90;;
57565;SDS011;63999;43.882;-0.310;2023-05-10T12:31:50;8.57;;;1.52;;
57565;SDS011;63999;43.882;-0.310;2023-05-10T12:34:25;10.30;;;2.00;;
57565;SDS011;63999;43.882;-0.310;2023-05-10T12:37:01;6.33;;;1.87;;
57565;SDS011;63999;43.882;-0.310;2023-05-10T12:39:40;8.02;;;1.75;;
57565;SDS011;63999;43.882;-0.310;2023-05-10T12:42:09;5.88;;;1.52;;
57565;SDS011;63999;43.882;-0.310;2023-05-10T12:44:39;7.22;;;1.73;;
57565;SDS011;63999;43.882;-0.310;2023-05-10T12:47:11;6.63;;;1.60;;
57565;SDS011;63999;43.882;-0.310;2023-05-10T12:49:37;7.63;;;1.58;;
57565;SDS011;63999;43.882;-0.310;2023-05-10T12:52:13;10.70;;;1.92;;
57565;SDS011;63999;43.882;-0.310;2023-05-10T12:54:54;7.47;;;1.60;;
57565;SDS011;63999;43.882;-0.310;2023-05-10T12:57:21;8.07;;;1.70;;
57565;SDS011;63999;43.882;-0.310;2023-05-10T12:59:54;6.40;;;1.73;;
57565;SDS011;63999;43.882;-0.310;2023-05-10T13:02:31;9.15;;;1.50;;
57565;SDS011;63999;43.882;-0.310;2023-05-10T13:05:00;8.27;;;1.60;;
57565;SDS011;63999;43.882;-0.310;2023-05-10T13:07:38;8.80;;;1.40;;
57565;SDS011;63999;43.882;-0.310;2023-05-10T13:10:05;7.05;;;1.55;;
57565;SDS011;63999;43.882;-0.310;2023-05-10T13:12:35;5.80;;;1.58;;
57565;SDS011;63999;43.882;-0.310;2023-05-10T13:15:01;7.60;;;1.80;;
57565;SDS011;63999;43.882;-0.310;2023-05-10T13:17:28;9.68;;;1.45;;
57565;SDS011;63999;43.882;-0.310;2023-05-10T13:20:00;6.68;;;1.65;;
57565;SDS011;63999;43.882;-0.310;2023-05-10T13:22:28;7.93;;;1.60;;
57565;SDS011;63999;43.882;-0.310;2023-05-10T13:25:02;6.97;;;1.70;;
57565;SDS011;63999;43.882;-0.310;2023-05-10T13:27:29;3.78;;;1.33;;
57565;SDS011;63999;43.882;-0.310;2023-05-10T13:29:58;8.95;;;1.40;;
57565;SDS011;63999;43.882;-0.310;2023-05-10T13:32:27;6.25;;;1.63;;
57565;SDS011;63999;43.882;-0.310;2023-05-10T13:34:54;11.13;;;1.90;;
57565;SDS011;63999;43.882;-0.310;2023-05-10T13:37:20;7.85;;;1.30;;
57565;SDS011;63999;43.882;-0.310;2023-05-10T13:39:46;7.85;;;2.00;;
57565;SDS011;63999;43.882;-0.310;2023-05-10T13:42:15;8.20;;;1.80;;
57565;SDS011;63999;43.882;-0.310;2023-05-10T13:44:49;12.25;;;1.83;;
57565;SDS011;63999;43.882;-0.310;2023-05-10T13:47:15;4.35;;;1.40;;
57565;SDS011;63999;43.882;-0.310;2023-05-10T13:49:47;8.23;;;1.52;;
57565;SDS011;63999;43.882;-0.310;2023-05-10T13:52:13;6.78;;;1.48;;
57565;SDS011;63999;43.882;-0.310;2023-05-10T13:54:42;8.45;;;1.75;;
57565;SDS011;63999;43.882;-0.310;2023-05-10T13:57:11;9.25;;;1.80;;
57565;SDS011;63999;43.882;-0.310;2023-05-10T13:59:39;7.82;;;1.50;;
57565;SDS011;63999;43.882;-0.310;2023-05-10T14:02:07;5.78;;;1.40;;
57565;SDS011;63999;43.882;-0.310;2023-05-10T14:04:38;6.53;;;1.52;;
57565;SDS011;63999;43.882;-0.310;2023-05-10T14:07:06;7.82;;;1.52;;
57565;SDS011;63999;43.882;-0.310;2023-05-10T14:09:35;6.68;;;1.38;;
57565;SDS011;63999;43.882;-0.310;2023-05-10T14:12:06;7.18;;;1.25;;
57565;SDS011;63999;43.882;-0.310;2023-05-10T14:14:33;7.78;;;1.58;;
57565;SDS011;63999;43.882;-0.310;2023-05-10T14:17:02;5.38;;;1.38;;
57565;SDS011;63999;43.882;-0.310;2023-05-10T14:19:33;9.35;;;1.33;;
57565;SDS011;63999;43.882;-0.310;2023-05-10T14:21:59;4.55;;;1.20;;
57565;SDS011;63999;43.882;-0.310;2023-05-10T14:24:28;6.22;;;1.05;;
57565;SDS011;63999;43.882;-0.310;2023-05-10T14:26:54;8.20;;;1.33;;
57565;SDS011;63999;43.882;-0.310;2023-05-10T14:29:20;7.32;;;1.30;;
57565;SDS011;63999;43.882;-0.310;2023-05-10T14:31:47;3.90;;;1.33;;
57565;SDS011;63999;43.882;-0.310;2023-05-10T14:34:15;7.07;;;1.30;;
57565;SDS011;63999;43.882;-0.310;2023-05-10T14:36:44;5.53;;;1.25;;
57565;SDS011;63999;43.882;-0.310;2023-05-10T14:39:18;4.85;;;0.98;;
57565;SDS011;63999;43.882;-0.310;2023-05-10T14:41:46;4.50;;;1.10;;
57565;SDS011;63999;43.882;-0.310;2023-05-10T14:44:19;3.40;;;1.10;;
57565;SDS011;63999;43.882;-0.310;2023-05-10T14:46:48;4.85;;;0.90;;
57565;SDS011;63999;43.882;-0.310;2023-05-10T14:49:14;3.53;;;1.00;;
57565;SDS011;63999;43.882;-0.310;2023-05-10T14:51:43;6.47;;;1.20;;
57565;SDS011;63999;43.882;-0.310;2023-05-10T14:54:10;8.02;;;1.60;;
57565;SDS011;63999;43.882;-0.310;2023-05-10T14:56:36;4.88;;;0.90;;
57565;SDS011;63999;43.882;-0.310;2023-05-10T14:59:06;7.40;;;1.70;;
57565;SDS011;63999;43.882;-0.310;2023-05-10T15:01:35;9.27;;;1.42;;
57565;SDS011;63999;43.882;-0.310;2023-05-10T15:04:06;5.70;;;1.17;;
57565;SDS011;63999;43.882;-0.310;2023-05-10T15:06:33;3.83;;;1.10;;
57565;SDS011;63999;43.882;-0.310;2023-05-10T15:09:02;3.90;;;1.00;;